createdAt,value
2018-08-12T00:00:23.013Z,1.17
2018-08-12T00:02:52.263Z,1.57
2018-08-12T00:05:21.145Z,1.27
2018-08-12T00:07:50.418Z,1.27
2018-08-12T00:10:20.423Z,2.70
2018-08-12T00:12:49.242Z,1.50
2018-08-12T00:15:19.943Z,1.30
2018-08-12T00:17:48.868Z,1.10
2018-08-12T00:20:20.562Z,1.60
2018-08-12T00:22:49.503Z,1.87
2018-08-12T00:25:20.252Z,1.57
2018-08-12T00:27:49.179Z,1.60
2018-08-12T00:30:18.692Z,1.50
2018-08-12T00:32:47.940Z,1.43
2018-08-12T00:35:18.512Z,1.47
2018-08-12T00:37:47.889Z,1.77
2018-08-12T00:40:17.791Z,1.30
2018-08-12T00:42:46.800Z,1.60
2018-08-12T00:45:18.490Z,1.60
2018-08-12T00:47:48.395Z,1.70
2018-08-12T00:50:18.480Z,1.83
2018-08-12T00:52:47.963Z,2.10
2018-08-12T00:55:18.554Z,1.50
2018-08-12T00:57:48.162Z,1.43
2018-08-12T01:00:19.748Z,1.40
2018-08-12T01:02:49.160Z,1.60
2018-08-12T01:05:18.627Z,1.90
2018-08-12T01:07:48.315Z,1.57
2018-08-12T01:10:17.855Z,1.60
2018-08-12T01:12:47.160Z,2.00
2018-08-12T01:15:19.928Z,1.80
2018-08-12T01:17:49.340Z,1.77
2018-08-12T01:20:21.484Z,1.73
2018-08-12T01:22:50.520Z,1.70
2018-08-12T01:25:20.032Z,1.90
2018-08-12T01:27:49.034Z,1.83
2018-08-12T01:30:19.696Z,1.53
2018-08-12T01:32:48.802Z,1.70
2018-08-12T01:35:17.909Z,1.80
2018-08-12T01:37:47.810Z,1.70
2018-08-12T01:40:17.664Z,2.00
2018-08-12T01:42:47.017Z,1.53
2018-08-12T01:45:18.993Z,1.70
2018-08-12T01:47:48.044Z,1.80
2018-08-12T01:50:18.348Z,1.43
2018-08-12T01:52:47.544Z,2.00
2018-08-12T01:55:16.574Z,1.80
2018-08-12T01:57:45.933Z,1.90
2018-08-12T02:00:18.730Z,2.27
2018-08-12T02:02:48.505Z,1.60
2018-08-12T02:05:18.420Z,2.03
2018-08-12T02:07:47.758Z,2.10
2018-08-12T02:10:16.687Z,2.17
2018-08-12T02:12:45.503Z,2.30
2018-08-12T02:15:14.691Z,2.03
2018-08-12T02:17:44.056Z,1.90
2018-08-12T02:20:13.513Z,1.67
2018-08-12T02:22:42.787Z,1.70
2018-08-12T02:25:12.112Z,1.60
2018-08-12T02:27:41.397Z,2.40
2018-08-12T02:30:11.673Z,2.10
2018-08-12T02:32:41.553Z,1.90
2018-08-12T02:35:10.620Z,1.80
2018-08-12T02:37:39.929Z,2.47
2018-08-12T02:40:09.840Z,2.13
2018-08-12T02:42:39.200Z,2.30
2018-08-12T02:45:12.552Z,1.70
2018-08-12T02:47:41.886Z,2.00
2018-08-12T02:50:11.189Z,2.03
2018-08-12T02:52:40.627Z,2.40
2018-08-12T02:55:10.616Z,2.30
2018-08-12T02:57:39.944Z,2.40
2018-08-12T03:00:09.676Z,2.23
2018-08-12T03:02:38.944Z,2.13
2018-08-12T03:05:08.427Z,2.27
2018-08-12T03:07:37.770Z,2.40
2018-08-12T03:10:07.699Z,2.70
2018-08-12T03:12:36.664Z,2.30
2018-08-12T03:15:06.010Z,2.93
2018-08-12T03:17:35.300Z,2.07
2018-08-12T03:20:05.417Z,2.43
2018-08-12T03:22:34.441Z,2.30
2018-08-12T03:25:03.714Z,2.70
2018-08-12T03:27:32.657Z,2.50
2018-08-12T03:30:01.584Z,2.00
2018-08-12T03:32:30.716Z,2.60
2018-08-12T03:34:59.715Z,2.40
2018-08-12T03:37:28.592Z,3.00
2018-08-12T03:39:57.436Z,2.57
2018-08-12T03:42:26.778Z,3.10
2018-08-12T03:44:55.769Z,3.77
2018-08-12T03:47:24.947Z,2.40
2018-08-12T03:49:54.208Z,3.27
2018-08-12T03:52:23.594Z,2.40
2018-08-12T03:54:52.923Z,3.00
2018-08-12T03:57:22.222Z,3.20
2018-08-12T03:59:51.593Z,3.10
2018-08-12T04:02:20.984Z,2.83
2018-08-12T04:04:49.901Z,3.57
2018-08-12T04:07:19.121Z,3.13
2018-08-12T04:09:48.092Z,3.10
2018-08-12T04:12:17.346Z,3.40
2018-08-12T04:14:46.665Z,3.27
2018-08-12T04:17:15.580Z,3.07
2018-08-12T04:19:44.750Z,3.17
2018-08-12T04:22:14.093Z,2.70
2018-08-12T04:24:43.384Z,2.87
2018-08-12T04:27:12.704Z,3.07
2018-08-12T04:29:41.588Z,2.77
2018-08-12T04:32:10.417Z,2.80
2018-08-12T04:34:39.337Z,2.57
2018-08-12T04:37:08.564Z,2.67
2018-08-12T04:39:37.459Z,3.10
2018-08-12T04:42:06.726Z,2.87
2018-08-12T04:44:36.057Z,2.90
2018-08-12T04:47:04.985Z,3.07
2018-08-12T04:49:33.818Z,2.80
2018-08-12T04:52:03.038Z,3.10
2018-08-12T04:54:32.331Z,3.73
2018-08-12T04:57:01.679Z,3.50
2018-08-12T04:59:30.712Z,3.00
2018-08-12T05:01:59.568Z,3.63
2018-08-12T05:04:28.823Z,3.57
2018-08-12T05:06:58.237Z,2.83
2018-08-12T05:09:27.458Z,3.30
2018-08-12T05:11:56.425Z,3.30
2018-08-12T05:14:25.609Z,3.37
2018-08-12T05:16:54.520Z,3.50
2018-08-12T05:19:23.785Z,3.37
2018-08-12T05:21:52.718Z,2.93
2018-08-12T05:24:21.540Z,3.30
2018-08-12T05:26:50.387Z,3.30
2018-08-12T05:29:19.220Z,3.40
2018-08-12T05:31:48.451Z,3.47
2018-08-12T05:34:17.820Z,3.70
2018-08-12T05:36:47.183Z,2.90
2018-08-12T05:39:16.555Z,3.90
2018-08-12T05:41:45.912Z,3.60
2018-08-12T05:44:14.855Z,3.50
2018-08-12T05:46:43.649Z,3.37
2018-08-12T05:49:12.890Z,3.13
2018-08-12T05:51:41.868Z,3.50
2018-08-12T05:54:11.073Z,3.30
2018-08-12T05:56:40.075Z,3.40
2018-08-12T05:59:08.890Z,3.30
2018-08-12T06:01:37.711Z,3.20
2018-08-12T06:04:07.024Z,3.30
2018-08-12T06:06:36.424Z,3.43
2018-08-12T06:09:07.300Z,3.10
2018-08-12T06:11:36.134Z,3.30
2018-08-12T06:14:05.961Z,3.40
2018-08-12T06:16:34.884Z,3.30
2018-08-12T06:19:03.750Z,3.33
2018-08-12T06:21:32.568Z,3.13
2018-08-12T06:24:01.834Z,2.80
2018-08-12T06:26:31.195Z,2.73
2018-08-12T06:29:00.500Z,2.90
2018-08-12T06:31:29.884Z,2.47
2018-08-12T06:33:59.214Z,2.47
2018-08-12T06:36:28.120Z,2.87
2018-08-12T06:38:56.989Z,2.60
2018-08-12T06:41:32.884Z,2.33
2018-08-12T06:44:02.216Z,2.20
2018-08-12T06:46:31.535Z,2.70
2018-08-12T06:49:00.940Z,2.50
2018-08-12T06:51:30.259Z,2.13
2018-08-12T06:53:59.596Z,2.20
2018-08-12T06:56:28.880Z,1.70
2018-08-12T06:58:58.227Z,2.00
2018-08-12T07:01:27.594Z,2.00
2018-08-12T07:03:56.953Z,2.63
2018-08-12T07:06:25.856Z,1.90
2018-08-12T07:08:55.152Z,1.60
2018-08-12T07:11:24.048Z,2.20
2018-08-12T07:13:53.327Z,1.80
2018-08-12T07:16:22.280Z,1.67
2018-08-12T07:18:51.072Z,1.53
2018-08-12T07:21:20.268Z,1.70
2018-08-12T07:23:49.517Z,1.70
2018-08-12T07:26:18.844Z,1.43
2018-08-12T07:28:48.156Z,1.53
2018-08-12T07:31:17.065Z,1.60
2018-08-12T07:33:46.243Z,1.50
2018-08-12T07:36:15.599Z,1.60
2018-08-12T07:38:44.950Z,1.47
2018-08-12T07:41:14.289Z,1.50
2018-08-12T07:43:43.190Z,1.87
2018-08-12T07:46:12.032Z,1.43
2018-08-12T07:48:41.320Z,1.70
2018-08-12T07:51:10.609Z,1.33
2018-08-12T07:53:39.623Z,1.50
2018-08-12T07:56:08.792Z,1.30
2018-08-12T07:58:37.739Z,1.40
2018-08-12T08:01:07.445Z,1.70
2018-08-12T08:03:36.717Z,1.37
2018-08-12T08:06:06.158Z,1.30
2018-08-12T08:08:35.465Z,1.30
2018-08-12T08:11:04.417Z,1.57
2018-08-12T08:13:33.690Z,1.37
2018-08-12T08:16:02.615Z,1.57
2018-08-12T08:18:32.077Z,1.10
2018-08-12T08:21:01.404Z,1.37
2018-08-12T08:23:30.342Z,1.70
2018-08-12T08:25:59.520Z,1.60
2018-08-12T08:28:28.856Z,1.40
2018-08-12T08:30:57.736Z,1.30
2018-08-12T08:33:26.553Z,1.67
2018-08-12T08:35:55.852Z,1.43
2018-08-12T08:38:24.761Z,1.60
2018-08-12T08:40:53.972Z,1.67
2018-08-12T08:43:23.343Z,1.57
2018-08-12T08:45:52.257Z,1.70
2018-08-12T08:48:21.473Z,1.57
2018-08-12T08:50:50.938Z,1.50
2018-08-12T08:53:20.213Z,2.00
2018-08-12T08:55:49.249Z,1.40
2018-08-12T08:58:18.544Z,1.90
2018-08-12T09:00:47.508Z,2.30
2018-08-12T09:03:16.323Z,1.60
2018-08-12T09:05:45.133Z,1.57
2018-08-12T09:08:14.533Z,1.50
2018-08-12T09:10:43.712Z,1.47
2018-08-12T09:13:12.683Z,1.57
2018-08-12T09:15:41.884Z,1.53
2018-08-12T09:18:11.257Z,1.40
2018-08-12T09:20:40.139Z,1.57
2018-08-12T09:23:09.340Z,1.73
2018-08-12T09:25:38.271Z,1.47
2018-08-12T09:28:07.533Z,1.40
2018-08-12T09:30:36.427Z,1.40
2018-08-12T09:33:05.717Z,1.30
2018-08-12T09:35:34.620Z,1.33
2018-08-12T09:38:03.920Z,1.20
2018-08-12T09:40:32.875Z,1.50
2018-08-12T09:43:01.768Z,1.40
2018-08-12T09:45:31.007Z,1.43
2018-08-12T09:48:00.360Z,1.37
2018-08-12T09:50:29.668Z,1.20
2018-08-12T09:52:58.559Z,1.30
2018-08-12T09:55:27.379Z,1.73
2018-08-12T09:57:56.188Z,1.23
2018-08-12T10:00:27.207Z,1.33
2018-08-12T10:02:57.329Z,1.33
2018-08-12T10:05:26.240Z,1.20
2018-08-12T10:07:55.471Z,1.40
2018-08-12T10:10:24.838Z,1.50
2018-08-12T10:12:53.772Z,1.50
2018-08-12T10:15:22.761Z,1.23
2018-08-12T10:17:57.459Z,1.30
2018-08-12T10:20:26.987Z,1.70
2018-08-12T10:22:56.032Z,1.40
2018-08-12T10:25:25.284Z,1.30
2018-08-12T10:27:54.587Z,1.43
2018-08-12T10:30:23.897Z,1.50
2018-08-12T10:32:52.823Z,1.17
2018-08-12T10:35:21.673Z,1.50
2018-08-12T10:37:50.536Z,1.37
2018-08-12T10:40:20.551Z,1.07
2018-08-12T10:42:50.219Z,1.30
2018-08-12T10:45:19.423Z,1.30
2018-08-12T10:47:48.866Z,1.43
2018-08-12T10:50:19.328Z,1.30
2018-08-12T10:52:48.989Z,1.50
2018-08-12T10:55:19.385Z,1.47
2018-08-12T10:57:48.776Z,1.47
2018-08-12T11:00:19.892Z,1.20
2018-08-12T11:02:48.834Z,1.10
2018-08-12T11:05:18.008Z,1.47
2018-08-12T11:07:49.878Z,1.50
2018-08-12T11:10:19.335Z,1.40
2018-08-12T11:12:48.741Z,1.53
2018-08-12T11:15:17.986Z,1.33
2018-08-12T11:17:46.935Z,1.57
2018-08-12T11:20:16.235Z,1.67
2018-08-12T11:22:45.538Z,1.30
2018-08-12T11:25:14.536Z,1.43
2018-08-12T11:27:43.327Z,1.50
2018-08-12T11:30:15.252Z,1.80
2018-08-12T11:32:44.325Z,1.50
2018-08-12T11:35:15.292Z,2.00
2018-08-12T11:37:44.559Z,1.70
2018-08-12T11:40:14.340Z,1.60
2018-08-12T11:42:43.856Z,1.50
2018-08-12T11:45:13.546Z,1.13
2018-08-12T11:47:42.801Z,1.53
2018-08-12T11:50:12.132Z,1.97
2018-08-12T11:52:41.890Z,1.77
2018-08-12T11:55:12.050Z,1.77
2018-08-12T11:57:41.576Z,1.60
2018-08-12T12:00:13.412Z,1.50
2018-08-12T12:02:42.865Z,1.73
2018-08-12T12:05:13.224Z,1.60
2018-08-12T12:07:42.727Z,1.60
2018-08-12T12:10:13.703Z,1.90
2018-08-12T12:12:43.803Z,2.10
2018-08-12T12:15:13.723Z,1.83
2018-08-12T12:17:42.851Z,1.50
2018-08-12T12:20:12.438Z,2.60
2018-08-12T12:22:42.224Z,2.00
2018-08-12T12:25:12.727Z,2.20
2018-08-12T12:27:42.162Z,1.80
2018-08-12T12:30:12.283Z,1.67
2018-08-12T12:32:41.841Z,1.60
2018-08-12T12:35:10.815Z,1.53
2018-08-12T12:37:40.464Z,1.67
2018-08-12T12:40:10.227Z,1.63
2018-08-12T12:42:39.118Z,1.40
2018-08-12T12:45:10.416Z,1.13
2018-08-12T12:47:39.815Z,1.57
2018-08-12T12:50:18.373Z,1.33
2018-08-12T12:52:48.652Z,1.00
2018-08-12T12:55:18.593Z,1.50
2018-08-12T12:57:48.075Z,1.43
2018-08-12T13:00:18.879Z,1.30
2018-08-12T13:02:47.939Z,1.00
2018-08-12T13:05:18.494Z,1.03
2018-08-12T13:07:48.397Z,1.50
2018-08-12T13:10:18.362Z,1.30
2018-08-12T13:12:47.697Z,1.70
2018-08-12T13:15:17.783Z,1.20
2018-08-12T13:17:47.177Z,1.50
2018-08-12T13:20:18.237Z,1.80
2018-08-12T13:22:48.055Z,1.50
2018-08-12T13:25:19.048Z,1.70
2018-08-12T13:27:47.961Z,1.27
2018-08-12T13:30:17.716Z,1.50
2018-08-12T13:32:47.794Z,1.57
2018-08-12T13:35:16.750Z,1.40
2018-08-12T13:37:46.154Z,1.40
2018-08-12T13:40:16.131Z,1.53
2018-08-12T13:42:46.035Z,1.30
2018-08-12T13:45:15.002Z,1.90
2018-08-12T13:47:45.309Z,1.60
2018-08-12T13:50:16.303Z,1.50
2018-08-12T13:52:45.555Z,1.40
2018-08-12T13:55:14.629Z,1.60
2018-08-12T13:57:44.052Z,1.30
2018-08-12T14:00:14.566Z,1.80
2018-08-12T14:02:43.454Z,1.50
2018-08-12T14:05:14.401Z,1.60
2018-08-12T14:07:43.860Z,1.87
2018-08-12T14:10:13.217Z,1.63
2018-08-12T14:12:42.712Z,1.40
2018-08-12T14:15:13.352Z,1.50
2018-08-12T14:17:43.777Z,1.60
2018-08-12T14:20:14.978Z,1.30
2018-08-12T14:22:43.903Z,1.53
2018-08-12T14:25:12.744Z,1.80
2018-08-12T14:27:43.191Z,1.57
2018-08-12T14:30:20.024Z,1.90
2018-08-12T14:32:49.980Z,1.70
2018-08-12T14:35:19.101Z,1.70
2018-08-12T14:37:48.441Z,1.80
2018-08-12T14:40:17.359Z,1.50
2018-08-12T14:42:46.548Z,1.60
2018-08-12T14:45:15.993Z,1.30
2018-08-12T14:47:45.172Z,1.70
2018-08-12T14:50:17.256Z,1.60
2018-08-12T14:52:46.611Z,1.67
2018-08-12T14:55:17.383Z,1.57
2018-08-12T14:57:46.845Z,1.67
2018-08-12T15:00:18.197Z,1.70
2018-08-12T15:02:48.816Z,1.87
2018-08-12T15:05:18.717Z,1.50
2018-08-12T15:07:48.084Z,1.40
2018-08-12T15:10:17.405Z,1.60
2018-08-12T15:12:46.330Z,1.80
2018-08-12T15:15:16.079Z,1.60
2018-08-12T15:17:46.044Z,1.70
2018-08-12T15:20:16.178Z,1.80
2018-08-12T15:22:45.562Z,1.50
2018-08-12T15:25:17.865Z,1.47
2018-08-12T15:27:47.370Z,1.80
2018-08-12T15:30:16.752Z,1.70
2018-08-12T15:32:45.721Z,1.53
2018-08-12T15:35:14.531Z,1.90
2018-08-12T15:37:43.796Z,1.73
2018-08-12T15:40:14.230Z,1.80
2018-08-12T15:42:43.925Z,1.80
2018-08-12T15:45:17.235Z,2.00
2018-08-12T15:47:47.077Z,1.70
2018-08-12T15:50:16.464Z,1.97
2018-08-12T15:52:46.809Z,1.80
2018-08-12T15:55:15.783Z,1.70
2018-08-12T15:57:44.980Z,2.17
2018-08-12T16:00:17.377Z,2.03
2018-08-12T16:02:46.934Z,1.57
2018-08-12T16:05:15.885Z,2.07
2018-08-12T16:07:46.286Z,2.20
2018-08-12T16:10:16.970Z,1.70
2018-08-12T16:12:46.967Z,1.93
2018-08-12T16:15:16.367Z,2.00
2018-08-12T16:17:45.290Z,1.90
2018-08-12T16:20:14.190Z,2.20
2018-08-12T16:22:43.510Z,1.70
2018-08-12T16:25:15.422Z,2.10
2018-08-12T16:27:44.975Z,1.70
2018-08-12T16:30:14.561Z,2.27
2018-08-12T16:32:43.450Z,2.10
2018-08-12T16:35:13.516Z,2.00
2018-08-12T16:37:43.575Z,2.20
2018-08-12T16:40:13.260Z,2.00
2018-08-12T16:42:42.153Z,2.60
2018-08-12T16:45:12.752Z,2.30
2018-08-12T16:47:42.449Z,2.37
2018-08-12T16:50:12.088Z,2.20
2018-08-12T16:52:42.205Z,2.07
2018-08-12T16:55:12.363Z,2.27
2018-08-12T16:57:42.310Z,2.30
2018-08-12T17:00:17.265Z,2.10
2018-08-12T17:02:46.817Z,2.10
2018-08-12T17:05:17.484Z,2.33
2018-08-12T17:07:46.861Z,1.90
2018-08-12T17:10:17.233Z,2.30
2018-08-12T17:12:46.245Z,2.20
2018-08-12T17:15:17.475Z,2.10
2018-08-12T17:17:47.428Z,2.27
2018-08-12T17:20:16.757Z,2.27
2018-08-12T17:22:46.208Z,2.30
2018-08-12T17:25:15.460Z,2.40
2018-08-12T17:27:44.440Z,2.40
2018-08-12T17:30:14.424Z,2.30
2018-08-12T17:32:43.807Z,2.03
2018-08-12T17:35:12.699Z,1.90
2018-08-12T17:37:43.152Z,2.30
2018-08-12T17:40:13.661Z,1.73
2018-08-12T17:42:43.100Z,2.03
2018-08-12T17:45:13.491Z,2.30
2018-08-12T17:47:43.016Z,1.97
2018-08-12T17:50:14.220Z,2.03
2018-08-12T17:52:43.196Z,1.80
2018-08-12T17:55:13.147Z,2.10
2018-08-12T17:57:42.916Z,1.90
2018-08-12T18:00:15.217Z,2.13
2018-08-12T18:02:44.444Z,2.30
2018-08-12T18:05:13.607Z,2.27
2018-08-12T18:07:42.648Z,2.13
2018-08-12T18:10:12.901Z,2.23
2018-08-12T18:12:42.277Z,2.30
2018-08-12T18:15:12.052Z,2.07
2018-08-12T18:17:42.223Z,2.10
2018-08-12T18:20:11.393Z,2.37
2018-08-12T18:22:40.240Z,1.93
2018-08-12T18:25:11.004Z,2.17
2018-08-12T18:27:40.192Z,2.10
2018-08-12T18:30:12.288Z,2.30
2018-08-12T18:32:41.940Z,1.97
2018-08-12T18:35:12.949Z,2.63
2018-08-12T18:37:42.508Z,2.00
2018-08-12T18:40:12.705Z,2.50
2018-08-12T18:42:41.977Z,2.30
2018-08-12T18:45:11.175Z,2.33
2018-08-12T18:47:40.601Z,2.70
2018-08-12T18:50:10.855Z,2.20
2018-08-12T18:52:41.142Z,2.20
2018-08-12T18:55:11.693Z,3.40
2018-08-12T18:57:40.534Z,2.37
2018-08-12T19:00:13.073Z,2.80
2018-08-12T19:02:43.372Z,2.10
2018-08-12T19:05:14.778Z,2.37
2018-08-12T19:07:44.079Z,2.67
2018-08-12T19:10:13.693Z,2.80
2018-08-12T19:12:44.467Z,2.40
2018-08-12T19:15:13.388Z,2.80
2018-08-12T19:17:43.241Z,2.87
2018-08-12T19:20:12.209Z,2.83
2018-08-12T19:22:41.124Z,2.70
2018-08-12T19:25:10.874Z,3.20
2018-08-12T19:27:40.272Z,2.40
2018-08-12T19:30:11.636Z,3.03
2018-08-12T19:32:40.997Z,3.93
2018-08-12T19:35:11.252Z,4.33
2018-08-12T19:37:40.772Z,4.80
2018-08-12T19:40:10.092Z,3.50
2018-08-12T19:42:39.669Z,4.67
2018-08-12T19:45:09.325Z,3.80
2018-08-12T19:47:38.536Z,3.63
2018-08-12T19:50:07.608Z,3.80
2018-08-12T19:52:36.850Z,4.10
2018-08-12T19:55:06.842Z,3.80
2018-08-12T19:57:36.334Z,4.30
2018-08-12T20:00:07.948Z,3.90
2018-08-12T20:02:37.258Z,3.70
2018-08-12T20:05:06.187Z,3.90
2018-08-12T20:07:35.416Z,3.90
2018-08-12T20:10:04.980Z,4.17
2018-08-12T20:12:33.811Z,4.60
2018-08-12T20:15:02.764Z,4.10
2018-08-12T20:17:31.599Z,3.93
2018-08-12T20:20:00.429Z,4.43
2018-08-12T20:22:31.766Z,4.20
2018-08-12T20:25:00.684Z,4.73
2018-08-12T20:27:29.928Z,4.20
2018-08-12T20:29:58.876Z,4.30
2018-08-12T20:32:27.722Z,4.10
2018-08-12T20:34:56.965Z,4.33
2018-08-12T20:37:25.859Z,4.00
2018-08-12T20:39:54.727Z,4.03
2018-08-12T20:42:24.029Z,3.40
2018-08-12T20:44:52.965Z,3.60
2018-08-12T20:47:21.813Z,4.13
2018-08-12T20:49:51.530Z,3.20
2018-08-12T20:52:20.421Z,3.90
2018-08-12T20:54:49.671Z,3.87
2018-08-12T20:57:18.573Z,4.23
2018-08-12T20:59:47.860Z,3.97
2018-08-12T21:02:16.763Z,4.13
2018-08-12T21:04:45.969Z,3.87
2018-08-12T21:07:14.915Z,3.73
2018-08-12T21:09:43.843Z,4.23
2018-08-12T21:12:13.239Z,4.07
2018-08-12T21:14:42.059Z,3.80
2018-08-12T21:17:10.891Z,3.90
2018-08-12T21:19:39.765Z,4.10
2018-08-12T21:22:08.978Z,3.80
2018-08-12T21:24:37.952Z,3.53
2018-08-12T21:27:07.050Z,4.17
2018-08-12T21:29:36.276Z,3.70
2018-08-12T21:32:05.218Z,4.30
2018-08-12T21:34:34.043Z,4.47
2018-08-12T21:37:02.928Z,4.20
2018-08-12T21:39:31.777Z,3.90
2018-08-12T21:42:00.603Z,4.27
2018-08-12T21:44:29.802Z,4.57
2018-08-12T21:46:59.176Z,4.47
2018-08-12T21:49:28.509Z,3.63
2018-08-12T21:51:57.826Z,4.03
2018-08-12T21:54:26.767Z,4.43
2018-08-12T21:56:55.983Z,3.27
2018-08-12T21:59:25.350Z,4.03
2018-08-12T22:01:54.759Z,4.20
2018-08-12T22:04:23.703Z,4.17
2018-08-12T22:06:52.999Z,4.57
2018-08-12T22:09:21.921Z,4.63
2018-08-12T22:11:50.752Z,4.73
2018-08-12T22:14:20.172Z,5.87
2018-08-12T22:16:49.098Z,6.33
2018-08-12T22:19:17.971Z,4.73
2018-08-12T22:21:47.298Z,4.70
2018-08-12T22:24:16.623Z,4.70
2018-08-12T22:26:45.979Z,4.40
2018-08-12T22:29:15.297Z,4.50
2018-08-12T22:31:44.684Z,4.80
2018-08-12T22:34:13.575Z,4.20
2018-08-12T22:36:42.387Z,4.23
2018-08-12T22:39:11.644Z,5.63
2018-08-12T22:41:40.953Z,5.33
2018-08-12T22:44:10.264Z,5.57
2018-08-12T22:46:39.171Z,5.10
2018-08-12T22:49:08.053Z,4.70
2018-08-12T22:51:37.261Z,4.47
2018-08-12T22:54:06.672Z,5.47
2018-08-12T22:56:35.595Z,4.87
2018-08-12T22:59:04.912Z,5.60
2018-08-12T23:01:33.844Z,5.20
2018-08-12T23:04:03.088Z,5.50
2018-08-12T23:06:32.041Z,5.77
2018-08-12T23:09:00.895Z,5.77
2018-08-12T23:11:30.181Z,5.67
2018-08-12T23:13:59.493Z,5.23
2018-08-12T23:16:33.960Z,5.53
2018-08-12T23:19:03.236Z,5.70
2018-08-12T23:21:32.191Z,5.03
2018-08-12T23:24:01.410Z,5.43
2018-08-12T23:26:30.761Z,4.83
2018-08-12T23:29:00.113Z,4.93
2018-08-12T23:31:29.072Z,5.07
2018-08-12T23:33:58.274Z,5.80
2018-08-12T23:36:27.610Z,4.90
2018-08-12T23:38:56.913Z,4.40
2018-08-12T23:41:25.848Z,4.47
2018-08-12T23:43:54.730Z,4.87
2018-08-12T23:46:23.548Z,5.00
2018-08-12T23:48:52.941Z,4.70
2018-08-12T23:51:21.868Z,5.57
2018-08-12T23:53:51.145Z,4.93
2018-08-12T23:56:20.504Z,4.73
2018-08-12T23:58:49.475Z,5.40
